Greenwood, FL

1:41 AM CDT on July 27, 2016 (GMT -0500)
Greenfield Subdivision | | Change Station

Elev 157 ft 30.81 °N, 85.19 °W | Updated 19 seconds ago

Partly Cloudy
Partly Cloudy
74.5 °F
Feels Like 72 °F
N
0.0
Wind Variable Wind from SSW
Gusts 1.0 mph

Today
High -- | Low -- °F
--% Chance of Precip.
Yesterday
High -- | Low -- °F
Precip. -- in
Pressure 30.06 in
Visibility 10.0 miles
Clouds Few 6000 ft
Heat Index 72 °F
Dew Point 73 °F
Humidity 95%
Rainfall 0.00 in
Snow Depth Not available.
5:55 AM 7:38 PM
Waning Gibbous, 46% visible
METAR KMAI 270553Z AUTO 20005KT 10SM FEW060 24/24 A3007 RMK AO2 SLP180 60000 T02440239 10256 20244 403280239 53005
Pressure 30.06 in
Visibility 10.0 miles
Clouds Few 6000 ft
Heat Index 72 °F
Dew Point 73 °F
Humidity 95%
Rainfall 0.00 in
Snow Depth Not available.
5:55 AM 7:38 PM
Waning Gibbous, 46% visible
METAR KMAI 270553Z AUTO 20005KT 10SM FEW060 24/24 A3007 RMK AO2 SLP180 60000 T02440239 10256 20244 403280239 53005

10-Day Weather Forecast

Almanac

Astronomy

Jul. 27, 2016 Rise Set
Actual Time
Civil Twilight
Nautical Twilight
Astronomical Twilight
Moon
Length of Visible Light
Length of Day
Tomorrow will be .
, % of the Moon is Illuminated

Today's Extremes

State Highs State Lows

Community

WunderPhotos

Upload Photos

1,927,818 photos uploaded!

WunderBlog® & News

Nearby

Air Quality

  Air Quality AQ Index Pollutant
Not available.

Snow Depth

Station Depth Elevation

Earthquake Activity

City Distance Mag. Time & Date
Minimum magnitude displayed is 2.5.

Coastal Water Temperatures

Place Temperature

Stations

Nearby Weather Stations

Station Location Temp. Windchill Dew Point Humidity Wind Precip. Elev Updated Type
                   

Watches & Warnings

There are currently no watches in effect.